Time;durP1;ratioP1;P1;durP2;ratioP2;P2;SDS_P1;SDS_P2;PMS_P1;PMS_P2;Temp;Humidity;BMP_temperature;BMP_pressure;BME280_temperature;BME280_humidity;BME280_pressure;Samples;Min_cycle;Max_cycle;Signal;HPM_P1;HPM_P2
2023/06/19 00:01:37;;;;;;;;;;;;;;;23.13;67.15;100626.16;7393451;19;1600;-79
2023/06/19 00:04:05;;;;;;;;;;;;;;;23.11;67.41;100649.75;7394794;19;1488;-77
2023/06/19 00:06:33;;;;;;;;;;;;;;;23.09;67.09;100627.50;7392401;19;1438;-78
2023/06/19 00:09:02;;;;;;;;;;;;;;;23.17;66.90;100632.91;7396369;19;1592;-78
2023/06/19 00:11:33;;;;;;;;;;;;;;;23.04;67.08;100622.63;7394200;19;1359;-78
2023/06/19 00:14:01;;;;;;;;;;;;;;;22.98;67.13;100624.09;7401522;19;1843;-78
2023/06/19 00:16:29;;;;;;;;;;;;;;;23.00;67.42;100632.03;7405235;19;1030;-78
2023/06/19 00:18:58;;;;;;;;;;;;;;;23.10;67.52;100621.09;7399780;19;1476;-78
2023/06/19 00:21:27;;;;;;;;;;;;;;;23.15;67.05;100638.47;7402678;19;1173;-78
2023/06/19 00:23:55;;;;;;;;;;;;;;;23.17;66.96;100632.91;7400695;19;1490;-79
2023/06/19 00:26:25;;;;;;;;;;;;;;;22.97;67.25;100625.09;7403904;19;1636;-78
2023/06/19 00:28:56;;;;;;;;;;;;;;;23.06;67.30;100634.09;7401596;19;1482;-78
2023/06/19 00:31:24;;;;;;;;;;;;;;;23.04;67.47;100622.63;7401253;19;1574;-78
2023/06/19 00:33:52;;;;;;;;;;;;;;;23.11;67.39;100637.13;7402036;19;1865;-79
2023/06/19 00:36:23;;;;;;;;;;;;;;;23.08;67.32;100642.00;7403172;19;1524;-77
2023/06/19 00:38:51;;;;;;;;;;;;;;;23.05;67.31;100647.72;7403607;19;1489;-78
2023/06/19 00:41:20;;;;;;;;;;;;;;;23.03;66.96;100646.03;7402308;19;1149;-78
2023/06/19 00:43:48;;;;;;;;;;;;;;;23.03;67.00;100637.09;7402910;19;1560;-77
2023/06/19 00:46:19;;;;;;;;;;;;;;;22.92;67.15;100646.31;7404217;19;1045;-78
2023/06/19 00:48:47;;;;;;;;;;;;;;;22.86;67.58;100648.81;7401282;19;1744;-78
2023/06/19 00:51:16;;;;;;;;;;;;;;;22.89;67.56;100649.34;7403077;19;1562;-78
2023/06/19 00:53:44;;;;;;;;;;;;;;;22.99;67.45;100644.66;7401953;19;1831;-79
2023/06/19 00:56:12;;;;;;;;;;;;;;;22.97;67.73;100632.34;7400986;19;1659;-79
2023/06/19 00:58:41;;;;;;;;;;;;;;;22.94;67.52;100655.09;7401827;19;1337;-78
2023/06/19 01:01:09;;;;;;;;;;;;;;;22.93;67.73;100642.59;7401428;19;1227;-78
2023/06/19 01:03:40;;;;;;;;;;;;;;;22.99;67.40;100639.25;7402025;19;1219;-78
2023/06/19 01:06:14;;;;;;;;;;;;;;;22.94;67.66;100638.03;7401277;19;1357;-77
2023/06/19 01:08:48;;;;;;;;;;;;;;;22.91;67.66;100633.84;7401129;19;1496;-78
2023/06/19 01:11:20;;;;;;;;;;;;;;;23.03;67.35;100647.88;7401129;19;1281;-78
2023/06/19 01:13:51;;;;;;;;;;;;;;;22.95;67.57;100635.19;7398511;19;1857;-77
2023/06/19 01:16:19;;;;;;;;;;;;;;;22.92;67.54;100630.16;7398966;19;1378;-78
2023/06/19 01:18:51;;;;;;;;;;;;;;;22.99;67.25;100638.41;7398506;19;1501;-78
2023/06/19 01:21:20;;;;;;;;;;;;;;;22.93;67.44;100626.44;7400627;19;1232;-77
2023/06/19 01:23:51;;;;;;;;;;;;;;;22.85;67.77;100645.28;7398867;19;1248;-77
2023/06/19 01:26:19;;;;;;;;;;;;;;;22.83;67.59;100636.50;7398663;19;1270;-78
2023/06/19 01:28:48;;;;;;;;;;;;;;;22.82;67.79;100640.25;7398684;19;1683;-78
2023/06/19 01:31:20;;;;;;;;;;;;;;;22.82;67.50;100641.06;7400502;19;1569;-78
2023/06/19 01:33:50;;;;;;;;;;;;;;;22.76;67.80;100630.94;7400240;19;1892;-78
2023/06/19 01:36:18;;;;;;;;;;;;;;;22.80;67.53;100632.31;7400239;19;1553;-78
2023/06/19 01:38:46;;;;;;;;;;;;;;;22.75;67.81;100629.25;7399426;19;1646;-78
2023/06/19 01:41:18;;;;;;;;;;;;;;;22.79;67.63;100637.84;7400509;19;1247;-77
2023/06/19 01:43:47;;;;;;;;;;;;;;;22.79;67.37;100635.16;7400609;19;1493;-78
2023/06/19 01:46:16;;;;;;;;;;;;;;;22.85;67.31;100642.59;7401711;19;1652;-77
2023/06/19 01:48:44;;;;;;;;;;;;;;;22.84;67.37;100627.44;7399720;19;1215;-77
2023/06/19 01:51:13;;;;;;;;;;;;;;;22.76;67.67;100639.03;7400134;19;1243;-78
2023/06/19 01:53:41;;;;;;;;;;;;;;;22.73;67.53;100638.50;7400744;19;1869;-78
2023/06/19 01:56:10;;;;;;;;;;;;;;;22.67;67.58;100631.06;7400091;19;1314;-78
2023/06/19 01:58:41;;;;;;;;;;;;;;;22.70;67.71;100652.31;7398312;19;1532;-77
2023/06/19 02:01:09;;;;;;;;;;;;;;;22.73;67.76;100655.53;7396507;19;1640;-78
2023/06/19 02:03:37;;;;;;;;;;;;;;;22.88;67.12;100655.75;7398917;19;1349;-78
2023/06/19 02:06:07;;;;;;;;;;;;;;;22.96;67.01;100663.88;7397637;19;1482;-78
2023/06/19 02:08:35;;;;;;;;;;;;;;;22.78;67.62;100660.41;7398566;19;1345;-78
2023/06/19 02:11:03;;;;;;;;;;;;;;;22.70;67.60;100663.09;7398864;19;1242;-77
2023/06/19 02:13:32;;;;;;;;;;;;;;;22.72;67.76;100661.06;7399791;19;1198;-78
2023/06/19 02:16:02;;;;;;;;;;;;;;;22.88;67.47;100666.53;7398122;19;1866;-76
2023/06/19 02:18:31;;;;;;;;;;;;;;;22.84;67.67;100670.56;7400006;19;1453;-76
2023/06/19 02:20:59;;;;;;;;;;;;;;;22.94;67.43;100676.66;7399648;19;1573;-76
2023/06/19 02:23:27;;;;;;;;;;;;;;;22.94;67.22;100679.38;7397864;19;1504;-77
2023/06/19 02:25:56;;;;;;;;;;;;;;;22.81;67.50;100681.66;7399532;19;1175;-76
2023/06/19 02:28:24;;;;;;;;;;;;;;;22.78;67.17;100676.59;7397879;19;1488;-76
2023/06/19 02:30:52;;;;;;;;;;;;;;;22.74;67.45;100681.50;7396803;19;1387;-76
2023/06/19 02:33:23;;;;;;;;;;;;;;;22.75;67.76;100693.09;7400110;19;1465;-76
2023/06/19 02:35:52;;;;;;;;;;;;;;;22.87;67.50;100672.94;7397854;19;1816;-76
2023/06/19 02:38:21;;;;;;;;;;;;;;;22.80;67.78;100685.34;7399594;19;1526;-76
2023/06/19 02:40:49;;;;;;;;;;;;;;;22.77;67.54;100697.31;7399310;19;1663;-77
2023/06/19 02:43:17;;;;;;;;;;;;;;;22.70;67.80;100687.34;7398022;19;1520;-77
2023/06/19 02:45:46;;;;;;;;;;;;;;;22.89;67.46;100703.25;7398615;19;1361;-77
2023/06/19 02:48:14;;;;;;;;;;;;;;;22.82;67.43;100699.56;7400227;19;1267;-77
2023/06/19 02:50:45;;;;;;;;;;;;;;;22.74;67.76;100694.09;7401966;19;1406;-77
2023/06/19 02:53:14;;;;;;;;;;;;;;;22.80;67.87;100699.72;7400824;19;1897;-77
2023/06/19 02:55:42;;;;;;;;;;;;;;;22.80;67.55;100696.13;7399607;19;1839;-76
2023/06/19 02:58:10;;;;;;;;;;;;;;;22.72;68.09;100704.19;7398235;19;1517;-77
2023/06/19 03:00:39;;;;;;;;;;;;;;;22.76;67.96;100700.16;7399680;19;1275;-77
2023/06/19 03:03:07;;;;;;;;;;;;;;;22.96;67.66;100701.63;7400682;19;1200;-77
2023/06/19 03:05:36;;;;;;;;;;;;;;;22.87;67.37;100691.81;7410505;19;1524;-77
2023/06/19 03:08:07;;;;;;;;;;;;;;;22.75;67.80;100698.50;7412680;19;1212;-77
2023/06/19 03:10:35;;;;;;;;;;;;;;;22.67;67.96;100701.16;7396885;19;1283;-77
2023/06/19 03:13:03;;;;;;;;;;;;;;;22.64;67.81;100696.91;7396859;19;1579;-77
2023/06/19 03:15:32;;;;;;;;;;;;;;;22.72;67.91;100717.69;7396677;19;1861;-76
2023/06/19 03:18:03;;;;;;;;;;;;;;;22.74;67.81;100712.97;7397487;19;1282;-77
2023/06/19 03:20:31;;;;;;;;;;;;;;;22.85;67.59;100715.38;7397209;19;1540;-77
2023/06/19 03:23:00;;;;;;;;;;;;;;;22.77;67.51;100713.50;7397639;19;1580;-76
2023/06/19 03:25:34;;;;;;;;;;;;;;;22.79;67.71;100724.13;7396739;19;1404;-77
2023/06/19 03:28:02;;;;;;;;;;;;;;;22.77;67.67;100720.75;7397046;19;1247;-77
2023/06/19 03:30:31;;;;;;;;;;;;;;;22.86;67.73;100721.63;7398124;19;1639;-77
2023/06/19 03:32:59;;;;;;;;;;;;;;;22.74;67.86;100734.53;7397385;19;1497;-77
2023/06/19 03:35:28;;;;;;;;;;;;;;;22.66;67.88;100729.97;7396444;19;1834;-76
2023/06/19 03:37:56;;;;;;;;;;;;;;;22.75;67.98;100728.16;7394497;19;1410;-76
2023/06/19 03:40:25;;;;;;;;;;;;;;;22.69;67.65;100729.63;7396914;19;1311;-77
2023/06/19 03:42:56;;;;;;;;;;;;;;;22.76;67.58;100746.00;7396856;19;1410;-77
2023/06/19 03:45:24;;;;;;;;;;;;;;;22.80;67.37;100747.38;7397615;19;1054;-77
2023/06/19 03:47:52;;;;;;;;;;;;;;;22.73;67.43;100749.88;7397672;19;2132;-78
2023/06/19 03:50:21;;;;;;;;;;;;;;;22.77;67.46;100745.00;7401265;19;1640;-77
2023/06/19 03:52:49;;;;;;;;;;;;;;;22.77;67.28;100745.00;7400664;19;1552;-77
2023/06/19 03:55:17;;;;;;;;;;;;;;;22.77;67.41;100758.50;7402716;19;1822;-77
2023/06/19 03:57:45;;;;;;;;;;;;;;;22.75;67.52;100750.56;7403680;19;1521;-77
2023/06/19 04:00:18;;;;;;;;;;;;;;;22.61;68.26;100738.53;7403649;19;1278;-77
2023/06/19 04:02:46;;;;;;;;;;;;;;;22.77;67.86;100742.31;7402728;19;1337;-77
2023/06/19 04:05:15;;;;;;;;;;;;;;;22.87;67.62;100716.06;7403537;19;1549;-76
2023/06/19 04:07:43;;;;;;;;;;;;;;;22.86;67.64;100717.09;7401904;19;1256;-77
2023/06/19 04:10:12;;;;;;;;;;;;;;;22.91;67.36;100698.56;7398098;19;1370;-77
2023/06/19 04:12:40;;;;;;;;;;;;;;;22.95;67.48;100702.63;7400792;19;1442;-77
2023/06/19 04:15:09;;;;;;;;;;;;;;;22.89;67.70;100705.97;7400551;19;1885;-77
2023/06/19 04:17:40;;;;;;;;;;;;;;;22.73;67.85;100687.88;7401765;19;1318;-77
2023/06/19 04:20:10;;;;;;;;;;;;;;;22.63;68.76;100690.69;7394881;19;1591;-77
2023/06/19 04:22:39;;;;;;;;;;;;;;;22.67;68.31;100690.38;7400245;19;1415;-77
2023/06/19 04:25:08;;;;;;;;;;;;;;;22.66;68.31;100699.47;7403145;19;1549;-77
2023/06/19 04:27:36;;;;;;;;;;;;;;;22.67;68.95;100704.69;7404549;19;1625;-77
2023/06/19 04:30:06;;;;;;;;;;;;;;;22.67;68.78;100701.16;7403871;19;1239;-77
2023/06/19 04:32:34;;;;;;;;;;;;;;;22.68;68.64;100701.00;7404677;19;1879;-77
2023/06/19 04:35:05;;;;;;;;;;;;;;;22.77;68.85;100701.88;7403576;19;1869;-77
2023/06/19 04:37:34;;;;;;;;;;;;;;;22.73;69.41;100717.53;7402595;19;1495;-78
2023/06/19 04:40:03;;;;;;;;;;;;;;;22.83;69.31;100712.84;7403033;19;1561;-77
2023/06/19 04:42:31;;;;;;;;;;;;;;;22.99;68.96;100703.97;7402216;19;1632;-77
2023/06/19 04:44:59;;;;;;;;;;;;;;;22.93;68.79;100709.19;7401837;19;1521;-77
2023/06/19 04:47:28;;;;;;;;;;;;;;;22.89;68.73;100705.13;7402812;19;1288;-77
2023/06/19 04:49:56;;;;;;;;;;;;;;;22.97;68.32;100713.25;7400909;19;1646;-77
2023/06/19 04:52:27;;;;;;;;;;;;;;;23.05;68.34;100718.69;7401492;19;1558;-80
2023/06/19 04:54:56;;;;;;;;;;;;;;;23.11;68.51;100725.28;7402974;19;1863;-76
2023/06/19 04:57:24;;;;;;;;;;;;;;;23.13;67.90;100717.88;7401737;19;1279;-77
2023/06/19 04:59:53;;;;;;;;;;;;;;;23.10;69.65;100726.28;7399938;19;1326;-77
2023/06/19 05:02:23;;;;;;;;;;;;;;;23.12;69.01;100732.34;7400227;19;1566;-76
2023/06/19 05:04:52;;;;;;;;;;;;;;;23.13;68.61;100729.50;7404452;19;1481;-77
2023/06/19 05:07:20;;;;;;;;;;;;;;;23.18;68.55;100737.13;7403309;19;1589;-76
2023/06/19 05:09:51;;;;;;;;;;;;;;;23.21;68.03;100742.19;7403161;19;1277;-77
2023/06/19 05:12:20;;;;;;;;;;;;;;;23.15;68.54;100740.13;7399762;19;1674;-76
2023/06/19 05:14:48;;;;;;;;;;;;;;;23.16;68.67;100741.84;7401396;19;1390;-78
2023/06/19 05:17:17;;;;;;;;;;;;;;;23.08;69.08;100748.06;7399034;19;1381;-77
2023/06/19 05:19:45;;;;;;;;;;;;;;;23.22;68.34;100739.31;7399133;19;1504;-77
2023/06/19 05:22:13;;;;;;;;;;;;;;;23.13;68.78;100744.84;7397307;19;1526;-78
2023/06/19 05:24:41;;;;;;;;;;;;;;;23.22;68.25;100744.72;7398557;19;1509;-77
2023/06/19 05:27:12;;;;;;;;;;;;;;;23.46;67.43;100744.94;7400502;19;1317;-77
2023/06/19 05:29:41;;;;;;;;;;;;;;;23.39;67.66;100737.50;7400718;19;1271;-76
2023/06/19 05:32:09;;;;;;;;;;;;;;;23.23;68.22;100745.56;7400983;19;1212;-76
2023/06/19 05:34:37;;;;;;;;;;;;;;;23.39;67.74;100723.16;7398686;19;2102;-77
2023/06/19 05:37:06;;;;;;;;;;;;;;;23.15;70.05;100729.34;7396829;19;1844;-78
2023/06/19 05:39:34;;;;;;;;;;;;;;;23.45;67.94;100743.25;7397668;19;1281;-78
2023/06/19 05:42:02;;;;;;;;;;;;;;;23.25;69.36;100770.53;7400040;19;1329;-77
2023/06/19 05:44:33;;;;;;;;;;;;;;;23.32;68.65;100736.50;7396618;19;1573;-78
2023/06/19 05:47:01;;;;;;;;;;;;;;;23.26;70.81;100739.84;7398072;19;1506;-77
2023/06/19 05:49:30;;;;;;;;;;;;;;;23.45;69.91;100746.78;7397331;19;1309;-77
2023/06/19 05:51:59;;;;;;;;;;;;;;;23.31;70.60;100759.06;6878565;19;9999744;-77
2023/06/19 05:54:28;;;;;;;;;;;;;;;23.29;70.59;100760.25;7390380;19;1574;-77
2023/06/19 05:56:56;;;;;;;;;;;;;;;23.25;70.16;100750.78;7388332;19;1840;-78
2023/06/19 05:59:24;;;;;;;;;;;;;;;23.36;70.28;100758.59;7393545;19;1144;-77
2023/06/19 06:01:56;;;;;;;;;;;;;;;23.41;69.48;100762.47;7393401;19;1425;-77
2023/06/19 06:04:24;;;;;;;;;;;;;;;23.54;69.64;100758.47;7393430;19;1324;-77
2023/06/19 06:06:52;;;;;;;;;;;;;;;23.74;69.00;100753.59;7389307;19;1564;-77
2023/06/19 06:09:21;;;;;;;;;;;;;;;23.53;69.95;100756.75;7387285;19;1489;-77
2023/06/19 06:11:49;;;;;;;;;;;;;;;23.63;69.60;100755.63;7390793;19;1549;-78
2023/06/19 06:14:17;;;;;;;;;;;;;;;23.34;70.57;100753.34;7390007;19;1530;-78
2023/06/19 06:16:46;;;;;;;;;;;;;;;23.47;69.94;100760.13;7389372;19;1849;-80
2023/06/19 06:19:17;;;;;;;;;;;;;;;23.49;69.67;100748.16;7396451;19;1140;-79
2023/06/19 06:21:45;;;;;;;;;;;;;;;23.49;70.26;100752.72;7396758;19;1216;-79
2023/06/19 06:24:13;;;;;;;;;;;;;;;23.60;69.18;100749.69;7396788;19;1141;-79
2023/06/19 06:26:41;;;;;;;;;;;;;;;23.48;70.36;100749.19;7398273;19;1409;-77
2023/06/19 06:29:10;;;;;;;;;;;;;;;23.52;68.96;100765.88;7400070;19;1415;-78
2023/06/19 06:31:41;;;;;;;;;;;;;;;23.57;68.38;100755.41;7397820;19;1715;-79
2023/06/19 06:34:09;;;;;;;;;;;;;;;23.57;69.73;100758.13;7399600;19;1227;-77
2023/06/19 06:36:40;;;;;;;;;;;;;;;23.58;69.94;100738.22;7401198;19;1853;-78
2023/06/19 06:39:08;;;;;;;;;;;;;;;23.69;69.42;100740.59;7402542;19;1538;-78
2023/06/19 06:41:37;;;;;;;;;;;;;;;23.77;68.96;100748.72;7401138;19;1215;-78
2023/06/19 06:44:05;;;;;;;;;;;;;;;23.79;68.94;100757.50;7400432;19;1101;-78
2023/06/19 06:46:33;;;;;;;;;;;;;;;23.87;68.35;100753.13;7399593;19;1482;-78
2023/06/19 06:49:02;;;;;;;;;;;;;;;23.81;68.21;100755.50;7400172;19;1591;-77
2023/06/19 06:51:30;;;;;;;;;;;;;;;23.57;69.61;100752.72;7398123;19;1468;-76
2023/06/19 06:54:01;;;;;;;;;;;;;;;23.60;70.22;100757.81;7398329;19;1533;-77
2023/06/19 06:56:29;;;;;;;;;;;;;;;23.90;69.12;100748.25;7396435;19;1861;-76
2023/06/19 06:58:58;;;;;;;;;;;;;;;23.56;69.98;100756.44;7397352;19;1297;-76
2023/06/19 07:01:26;;;;;;;;;;;;;;;23.49;70.63;100756.25;7397903;19;1243;-76
2023/06/19 07:03:58;;;;;;;;;;;;;;;23.58;69.49;100752.56;7395370;19;1864;-76
2023/06/19 07:06:26;;;;;;;;;;;;;;;23.57;69.39;100758.13;7398894;19;1584;-76
2023/06/19 07:08:54;;;;;;;;;;;;;;;23.69;69.25;100756.78;7396453;19;1508;-76
2023/06/19 07:11:25;;;;;;;;;;;;;;;23.61;69.93;100775.66;7397155;19;1397;-76
2023/06/19 07:13:53;;;;;;;;;;;;;;;23.68;69.92;100774.00;7397628;19;1220;-76
2023/06/19 07:16:21;;;;;;;;;;;;;;;23.76;69.22;100763.22;7398885;19;1863;-76
2023/06/19 07:18:50;;;;;;;;;;;;;;;23.71;69.76;100760.16;7397129;19;1277;-76
2023/06/19 07:21:18;;;;;;;;;;;;;;;23.71;69.49;100760.16;7398317;19;1509;-76
2023/06/19 07:23:47;;;;;;;;;;;;;;;23.72;69.04;100767.25;7394298;19;1281;-76
2023/06/19 07:26:17;;;;;;;;;;;;;;;23.62;69.30;100763.88;7398197;19;1447;-76
2023/06/19 07:28:48;;;;;;;;;;;;;;;23.71;68.72;100776.34;7396295;19;1499;-77
2023/06/19 07:31:16;;;;;;;;;;;;;;;23.53;68.63;100770.25;7396180;19;1619;-76
2023/06/19 07:33:44;;;;;;;;;;;;;;;23.48;68.65;100778.03;7395899;19;1473;-77
2023/06/19 07:36:15;;;;;;;;;;;;;;;23.50;68.18;100781.41;7396665;19;1841;-76
2023/06/19 07:38:44;;;;;;;;;;;;;;;23.44;68.34;100774.81;7398489;19;1310;-76
2023/06/19 07:41:13;;;;;;;;;;;;;;;23.43;68.25;100783.91;7396424;19;1235;-76
2023/06/19 07:43:41;;;;;;;;;;;;;;;23.55;67.32;100789.84;7397318;19;1599;-76
2023/06/19 07:46:12;;;;;;;;;;;;;;;23.68;66.89;100779.41;7398318;19;1137;-76
2023/06/19 07:48:41;;;;;;;;;;;;;;;23.88;66.36;100782.69;7397115;19;1408;-76
2023/06/19 07:51:10;;;;;;;;;;;;;;;23.60;66.99;100776.69;7397673;19;1713;-76
2023/06/19 07:53:39;;;;;;;;;;;;;;;23.60;67.10;100795.59;7397343;19;1571;-76
2023/06/19 07:56:08;;;;;;;;;;;;;;;23.66;66.69;100773.34;7396849;19;1834;-76
2023/06/19 07:58:36;;;;;;;;;;;;;;;23.65;67.29;100787.81;7396950;19;1474;-76
2023/06/19 08:01:04;;;;;;;;;;;;;;;23.61;67.26;100789.16;7394027;19;1648;-77
2023/06/19 08:03:35;;;;;;;;;;;;;;;23.41;67.84;100791.31;7394755;19;1476;-76
2023/06/19 08:06:04;;;;;;;;;;;;;;;23.59;67.23;100777.69;7395588;19;1489;-76
2023/06/19 08:08:32;;;;;;;;;;;;;;;23.41;67.48;100786.75;7392581;19;1542;-76
2023/06/19 08:11:00;;;;;;;;;;;;;;;23.41;68.17;100789.44;7392919;19;1196;-76
2023/06/19 08:13:29;;;;;;;;;;;;;;;23.43;67.97;100770.41;7396082;19;1544;-76
2023/06/19 08:15:57;;;;;;;;;;;;;;;23.39;68.54;100783.38;7393807;19;1867;-77
2023/06/19 08:18:26;;;;;;;;;;;;;;;23.50;69.13;100778.72;7391670;19;1495;-76
2023/06/19 08:20:57;;;;;;;;;;;;;;;23.26;68.85;100787.53;7393034;19;1367;-76
2023/06/19 08:23:25;;;;;;;;;;;;;;;23.52;68.03;100793.72;7391962;19;1491;-76
2023/06/19 08:25:53;;;;;;;;;;;;;;;23.52;68.15;100771.28;7392069;19;1026;-77
2023/06/19 08:28:22;;;;;;;;;;;;;;;23.53;67.92;100784.59;7390548;19;1880;-77
2023/06/19 08:30:50;;;;;;;;;;;;;;;23.43;67.53;100795.53;7385169;19;1800;-79
2023/06/19 08:33:18;;;;;;;;;;;;;;;23.49;67.45;100782.41;7388411;19;967;-79
2023/06/19 08:35:48;;;;;;;;;;;;;;;23.55;68.37;100781.72;7318248;19;12128;-79
2023/06/19 08:38:19;;;;;;;;;;;;;;;23.47;66.89;100789.81;7393064;19;1846;-78
2023/06/19 08:40:47;;;;;;;;;;;;;;;23.25;68.51;100786.72;7392162;19;1622;-77
2023/06/19 08:43:15;;;;;;;;;;;;;;;23.36;68.23;100786.41;7390110;19;1295;-77
2023/06/19 08:45:44;;;;;;;;;;;;;;;23.53;67.52;100791.84;7394766;19;1500;-77
2023/06/19 08:48:15;;;;;;;;;;;;;;;23.57;67.71;100788.66;7395969;19;1424;-77
2023/06/19 08:50:44;;;;;;;;;;;;;;;23.60;67.67;100784.81;7397788;19;1496;-76
2023/06/19 08:53:12;;;;;;;;;;;;;;;23.63;67.64;100768.25;7398086;19;1427;-77
2023/06/19 08:55:43;;;;;;;;;;;;;;;23.60;67.71;100777.53;7400752;19;1247;-77
2023/06/19 08:58:12;;;;;;;;;;;;;;;23.64;67.58;100786.16;7399135;19;1855;-76
2023/06/19 09:00:40;;;;;;;;;;;;;;;23.65;67.69;100777.03;7399194;19;1492;-77
2023/06/19 09:03:09;;;;;;;;;;;;;;;23.66;67.83;100778.72;7400515;19;1140;-76
2023/06/19 09:05:43;;;;;;;;;;;;;;;23.63;67.63;100779.06;7401830;19;1461;-77
2023/06/19 09:08:15;;;;;;;;;;;;;;;23.65;67.74;100782.44;7401446;19;1481;-77
2023/06/19 09:10:56;;;;;;;;;;;;;;;23.72;67.63;100780.75;7401053;19;1402;-76
2023/06/19 09:13:24;;;;;;;;;;;;;;;23.67;67.57;100779.56;7401136;19;1114;-77
2023/06/19 09:16:01;;;;;;;;;;;;;;;23.65;67.75;100785.13;7399778;19;1504;-76
2023/06/19 09:18:30;;;;;;;;;;;;;;;23.60;67.73;100791.03;7398393;19;1845;-77
2023/06/19 09:20:58;;;;;;;;;;;;;;;23.64;67.86;100794.25;7401309;19;1378;-76
2023/06/19 09:23:26;;;;;;;;;;;;;;;23.73;67.34;100797.81;7396663;19;1881;-77
2023/06/19 09:25:59;;;;;;;;;;;;;;;23.73;67.53;100787.00;7399596;19;1651;-77
2023/06/19 09:28:29;;;;;;;;;;;;;;;23.64;67.82;100780.75;7304200;19;13457;-77
2023/06/19 09:30:58;;;;;;;;;;;;;;;23.57;67.96;100777.00;7398481;19;1911;-76
2023/06/19 09:33:28;;;;;;;;;;;;;;;23.58;68.01;100778.72;7397978;19;1554;-77
2023/06/19 09:35:57;;;;;;;;;;;;;;;23.43;67.83;100756.91;7398778;19;1382;-76
2023/06/19 09:38:27;;;;;;;;;;;;;;;23.60;67.73;100776.69;7399355;19;1849;-77
2023/06/19 09:40:59;;;;;;;;;;;;;;;23.69;67.71;100780.25;7398533;19;1961;-77
2023/06/19 09:43:28;;;;;;;;;;;;;;;23.71;67.44;100781.75;7396691;19;1550;-77
2023/06/19 09:45:57;;;;;;;;;;;;;;;23.68;67.40;100778.56;7398004;19;1284;-77
2023/06/19 09:48:30;;;;;;;;;;;;;;;23.65;67.58;100766.22;7398505;19;1479;-76
2023/06/19 09:51:12;;;;;;;;;;;;;;;23.68;67.49;100773.16;7399995;19;1705;-77
2023/06/19 09:53:40;;;;;;;;;;;;;;;23.70;67.35;100774.69;7397848;19;1919;-77
2023/06/19 09:56:12;;;;;;;;;;;;;;;23.70;67.52;100763.88;7398541;19;1390;-77
2023/06/19 09:58:41;;;;;;;;;;;;;;;23.73;67.53;100762.69;7395909;19;1848;-76
2023/06/19 10:01:09;;;;;;;;;;;;;;;23.75;67.72;100761.50;7399016;19;1561;-77
2023/06/19 10:03:40;;;;;;;;;;;;;;;23.76;67.18;100762.38;7397702;19;1390;-77
2023/06/19 10:06:08;;;;;;;;;;;;;;;23.74;67.41;100756.31;7395569;19;1488;-76
2023/06/19 10:08:41;;;;;;;;;;;;;;;23.81;67.05;100752.81;7399675;19;1493;-77
2023/06/19 10:11:12;;;;;;;;;;;;;;;23.80;67.23;100747.56;7400335;19;1347;-77
2023/06/19 10:13:43;;;;;;;;;;;;;;;23.51;68.03;100753.38;7399705;19;1379;-77
2023/06/19 10:16:22;;;;;;;;;;;;;;;23.76;67.32;100736.22;7398110;19;967;-77
2023/06/19 10:18:50;;;;;;;;;;;;;;;23.59;67.95;100729.94;7400822;19;1856;-76
2023/06/19 10:21:19;;;;;;;;;;;;;;;23.60;67.97;100741.59;7401046;19;1643;-77
2023/06/19 10:23:55;;;;;;;;;;;;;;;23.66;67.62;100746.34;7401377;19;1340;-76
2023/06/19 10:26:31;;;;;;;;;;;;;;;23.64;67.67;100732.16;7403804;19;1342;-77
2023/06/19 10:29:00;;;;;;;;;;;;;;;23.60;67.62;100741.59;7397555;19;1468;-76
2023/06/19 10:31:28;;;;;;;;;;;;;;;23.58;67.81;100724.72;7402351;19;1133;-76
2023/06/19 10:33:57;;;;;;;;;;;;;;;23.56;67.70;100732.16;7402823;19;1488;-77
2023/06/19 10:36:27;;;;;;;;;;;;;;;23.61;67.75;100721.69;7402558;19;1817;-76
2023/06/19 10:38:55;;;;;;;;;;;;;;;23.57;67.82;100726.56;7400333;19;1830;-77
2023/06/19 10:41:32;;;;;;;;;;;;;;;23.58;67.80;100744.47;7401647;19;1533;-77
2023/06/19 10:44:02;;;;;;;;;;;;;;;23.57;68.06;100739.22;7402248;19;1355;-76
2023/06/19 10:46:32;;;;;;;;;;;;;;;23.51;67.97;100713.75;7404803;19;1289;-76
2023/06/19 10:49:01;;;;;;;;;;;;;;;23.49;68.07;100728.41;7407916;19;1248;-77
2023/06/19 10:51:30;;;;;;;;;;;;;;;23.47;67.99;100733.13;7408263;19;1433;-76
2023/06/19 10:53:59;;;;;;;;;;;;;;;23.50;67.94;100751.72;7402636;19;1211;-76
2023/06/19 10:56:28;;;;;;;;;;;;;;;23.53;67.74;100748.66;7400378;19;1391;-76
2023/06/19 10:59:03;;;;;;;;;;;;;;;23.48;67.97;100748.34;7396360;19;1841;-76
2023/06/19 11:01:35;;;;;;;;;;;;;;;23.42;68.17;100758.78;7413067;19;1054;-76
2023/06/19 11:04:04;;;;;;;;;;;;;;;23.41;68.22;100754.38;7406409;19;1349;-76
2023/06/19 11:06:33;;;;;;;;;;;;;;;23.40;68.35;100749.16;7398199;19;1436;-77
2023/06/19 11:09:03;;;;;;;;;;;;;;;23.48;67.91;100740.25;7399861;19;1844;-76
2023/06/19 11:11:42;;;;;;;;;;;;;;;23.32;67.90;100739.19;7396040;19;1558;-77
2023/06/19 11:14:14;;;;;;;;;;;;;;;23.29;67.82;100744.91;7397194;19;1884;-77
2023/06/19 11:16:44;;;;;;;;;;;;;;;23.49;66.94;100745.44;7398613;19;1015;-77
2023/06/19 11:19:12;;;;;;;;;;;;;;;23.30;67.56;100735.81;7397072;19;1846;-77
2023/06/19 11:21:41;;;;;;;;;;;;;;;23.52;67.06;100749.69;7397973;19;1461;-76
2023/06/19 11:24:16;;;;;;;;;;;;;;;23.57;66.95;100742.75;7396871;19;1422;-76
2023/06/19 11:26:49;;;;;;;;;;;;;;;23.69;66.53;100761.34;7399709;19;1538;-77
2023/06/19 11:29:21;;;;;;;;;;;;;;;23.63;66.62;100752.06;7399290;19;1092;-76
2023/06/19 11:31:50;;;;;;;;;;;;;;;23.71;66.26;100748.53;7398256;19;1546;-77
2023/06/19 11:34:19;;;;;;;;;;;;;;;23.64;66.20;100759.16;7397121;19;1298;-77
2023/06/19 11:36:48;;;;;;;;;;;;;;;23.65;66.17;100741.94;7398034;19;1282;-76
2023/06/19 11:39:17;;;;;;;;;;;;;;;23.41;67.76;100753.53;7393455;19;1846;-76
2023/06/19 11:41:46;;;;;;;;;;;;;;;23.47;67.04;100754.72;7392806;19;1490;-76
2023/06/19 11:44:14;;;;;;;;;;;;;;;23.26;66.88;100750.63;7397737;19;1241;-76
2023/06/19 11:46:46;;;;;;;;;;;;;;;23.23;67.08;100735.59;7397846;19;1078;-76
2023/06/19 11:49:16;;;;;;;;;;;;;;;23.33;66.99;100732.75;7396028;19;1593;-76
2023/06/19 11:51:45;;;;;;;;;;;;;;;23.45;67.01;100732.47;7397672;19;1744;-77
2023/06/19 11:54:14;;;;;;;;;;;;;;;23.35;67.38;100727.22;7398305;19;1170;-76
2023/06/19 11:56:43;;;;;;;;;;;;;;;23.29;67.55;100720.63;7397174;19;1911;-76
2023/06/19 11:59:11;;;;;;;;;;;;;;;23.55;67.12;100703.47;7398079;19;1826;-76
2023/06/19 12:01:40;;;;;;;;;;;;;;;23.45;67.19;100686.59;7398683;19;1853;-77
2023/06/19 12:04:11;;;;;;;;;;;;;;;23.31;67.82;100682.69;7396626;19;1752;-77
2023/06/19 12:06:40;;;;;;;;;;;;;;;23.55;67.31;100681.88;7397818;19;1487;-77
2023/06/19 12:09:09;;;;;;;;;;;;;;;23.61;66.92;100673.94;7399806;19;1612;-76
2023/06/19 12:11:38;;;;;;;;;;;;;;;23.69;66.33;100672.25;7404575;19;1636;-76
2023/06/19 12:14:06;;;;;;;;;;;;;;;23.36;67.31;100656.88;7400495;19;1538;-76
2023/06/19 12:16:34;;;;;;;;;;;;;;;23.28;65.75;100664.97;7401860;19;1379;-76
2023/06/19 12:19:02;;;;;;;;;;;;;;;23.11;67.13;100656.00;7401263;19;1857;-77
2023/06/19 12:21:34;;;;;;;;;;;;;;;23.21;66.70;100661.25;7402549;19;1487;-77
2023/06/19 12:24:02;;;;;;;;;;;;;;;23.46;65.49;100677.47;7403244;19;1277;-76
2023/06/19 12:26:31;;;;;;;;;;;;;;;23.47;65.71;100668.38;7405093;19;1412;-76
2023/06/19 12:29:00;;;;;;;;;;;;;;;23.42;64.98;100685.91;7404918;19;976;-77
2023/06/19 12:31:28;;;;;;;;;;;;;;;23.54;65.27;100678.34;7402221;19;1843;-76
2023/06/19 12:33:56;;;;;;;;;;;;;;;23.58;65.41;100676.16;7404641;19;1398;-77
2023/06/19 12:36:27;;;;;;;;;;;;;;;23.71;64.83;100664.81;7399682;19;1906;-76
2023/06/19 12:38:58;;;;;;;;;;;;;;;23.79;64.80;100689.16;7401885;19;1850;-76
2023/06/19 12:41:26;;;;;;;;;;;;;;;23.78;64.91;100682.91;7403341;19;1554;-76
2023/06/19 12:43:54;;;;;;;;;;;;;;;23.61;65.28;100683.88;7405010;19;1856;-77
2023/06/19 12:46:23;;;;;;;;;;;;;;;23.63;64.98;100695.38;7402305;19;1424;-77
2023/06/19 12:48:53;;;;;;;;;;;;;;;23.80;64.38;100672.78;7402221;19;1490;-77
2023/06/19 12:51:21;;;;;;;;;;;;;;;23.80;64.80;100667.38;7403780;19;1201;-77
2023/06/19 12:53:50;;;;;;;;;;;;;;;23.71;64.65;100662.97;7403138;19;1433;-77
2023/06/19 12:56:21;;;;;;;;;;;;;;;23.85;64.05;100668.72;7406450;19;1236;-77
2023/06/19 12:58:49;;;;;;;;;;;;;;;23.82;64.36;100649.16;7402280;19;1867;-77